createdAt,value
2018-07-27T00:01:19.704Z,6.13
2018-07-27T00:03:46.879Z,6.80
2018-07-27T00:06:14.070Z,6.23
2018-07-27T00:08:41.220Z,7.10
2018-07-27T00:11:08.400Z,8.83
2018-07-27T00:13:35.672Z,7.57
2018-07-27T00:16:02.852Z,6.50
2018-07-27T00:18:29.987Z,8.53
2018-07-27T00:20:57.178Z,6.60
2018-07-27T00:23:24.291Z,8.90
2018-07-27T00:25:51.409Z,6.93
2018-07-27T00:28:18.566Z,6.77
2018-07-27T00:30:45.701Z,7.63
2018-07-27T00:33:12.859Z,7.30
2018-07-27T00:35:40.144Z,7.20
2018-07-27T00:38:07.322Z,6.43
2018-07-27T00:40:34.480Z,7.27
2018-07-27T00:43:01.638Z,7.03
2018-07-27T00:45:28.747Z,7.40
2018-07-27T00:47:55.878Z,8.03
2018-07-27T00:50:23.036Z,6.73
2018-07-27T00:52:50.199Z,8.67
2018-07-27T00:55:17.328Z,8.57
2018-07-27T00:57:44.581Z,7.43
2018-07-27T01:00:11.718Z,7.00
2018-07-27T01:02:38.821Z,6.63
2018-07-27T01:05:05.997Z,7.50
2018-07-27T01:07:33.180Z,6.90
2018-07-27T01:10:00.342Z,8.20
2018-07-27T01:12:27.626Z,6.83
2018-07-27T01:14:54.808Z,8.20
2018-07-27T01:17:21.946Z,7.80
2018-07-27T01:19:49.250Z,7.50
2018-07-27T01:22:16.363Z,7.73
2018-07-27T01:24:43.550Z,8.73
2018-07-27T01:27:10.805Z,9.60
2018-07-27T01:29:37.932Z,7.90
2018-07-27T01:32:05.092Z,7.53
2018-07-27T01:34:32.265Z,7.73
2018-07-27T01:36:59.401Z,8.30
2018-07-27T01:39:26.536Z,8.70
2018-07-27T01:41:53.718Z,7.60
2018-07-27T01:44:20.897Z,8.23
2018-07-27T01:46:48.009Z,7.43
2018-07-27T01:49:15.264Z,9.20
2018-07-27T01:51:42.397Z,8.73
2018-07-27T01:54:09.524Z,7.90
2018-07-27T01:56:36.813Z,8.73
2018-07-27T01:59:04.012Z,8.13
2018-07-27T02:01:31.715Z,8.73
2018-07-27T02:03:58.889Z,10.80
2018-07-27T02:06:26.004Z,8.40
2018-07-27T02:08:53.148Z,8.17
2018-07-27T02:11:20.336Z,8.63
2018-07-27T02:13:47.509Z,8.23
2018-07-27T02:16:14.689Z,8.57
2018-07-27T02:18:41.977Z,9.10
2018-07-27T02:21:09.097Z,9.90
2018-07-27T02:23:36.285Z,9.97
2018-07-27T02:26:03.537Z,10.10
2018-07-27T02:28:30.660Z,10.77
2018-07-27T02:30:57.820Z,15.43
2018-07-27T02:33:25.034Z,10.77
2018-07-27T02:35:52.860Z,10.63
2018-07-27T02:38:19.993Z,8.97
2018-07-27T02:40:47.157Z,9.33
2018-07-27T02:43:14.266Z,11.13
2018-07-27T02:45:41.401Z,11.43
2018-07-27T02:48:08.580Z,9.53
2018-07-27T02:50:35.709Z,9.53
2018-07-27T02:53:03.301Z,10.23
2018-07-27T02:55:30.460Z,9.37
2018-07-27T02:57:57.650Z,10.27
2018-07-27T03:00:24.757Z,10.47
2018-07-27T03:02:52.004Z,9.57
2018-07-27T03:05:19.173Z,12.37
2018-07-27T03:07:46.276Z,10.63
2018-07-27T03:10:13.472Z,11.20
2018-07-27T03:12:40.642Z,9.83
2018-07-27T03:15:08.004Z,10.07
2018-07-27T03:17:35.337Z,10.47
2018-07-27T03:20:02.516Z,10.00
2018-07-27T03:22:29.662Z,10.90
2018-07-27T03:24:57.470Z,11.63
2018-07-27T03:27:24.603Z,11.23
2018-07-27T03:29:51.752Z,10.73
2018-07-27T03:32:18.991Z,10.97
2018-07-27T03:34:46.118Z,10.10
2018-07-27T03:37:13.328Z,10.80
2018-07-27T03:39:40.588Z,11.27
2018-07-27T03:42:07.752Z,11.23
2018-07-27T03:44:34.887Z,11.40
2018-07-27T03:47:02.113Z,11.07
2018-07-27T03:49:29.277Z,11.83
2018-07-27T03:51:56.411Z,12.10
2018-07-27T03:54:23.718Z,10.80
2018-07-27T03:56:50.894Z,10.83
2018-07-27T03:59:18.029Z,11.23
2018-07-27T04:01:45.251Z,11.27
2018-07-27T04:04:12.400Z,11.00
2018-07-27T04:06:39.525Z,11.43
2018-07-27T04:09:07.648Z,11.83
2018-07-27T04:11:34.846Z,13.87
2018-07-27T04:14:02.069Z,12.17
2018-07-27T04:16:29.402Z,12.07
2018-07-27T04:18:56.553Z,12.40
2018-07-27T04:21:23.826Z,11.77
2018-07-27T04:23:51.008Z,12.13
2018-07-27T04:26:18.139Z,13.40
2018-07-27T04:28:45.261Z,11.77
2018-07-27T04:31:12.429Z,13.00
2018-07-27T04:33:39.565Z,14.30
2018-07-27T04:36:06.757Z,13.77
2018-07-27T04:38:34.018Z,13.40
2018-07-27T04:41:01.147Z,16.07
2018-07-27T04:43:28.309Z,13.43
2018-07-27T04:45:55.572Z,13.60
2018-07-27T04:48:22.696Z,12.83
2018-07-27T04:50:49.808Z,13.73
2018-07-27T04:53:17.055Z,12.77
2018-07-27T04:55:44.209Z,13.87
2018-07-27T04:58:11.406Z,12.87
2018-07-27T05:00:38.621Z,13.83
2018-07-27T05:03:05.741Z,14.00
2018-07-27T05:05:32.840Z,13.10
2018-07-27T05:08:00.105Z,15.23
2018-07-27T05:10:32.902Z,15.67
2018-07-27T05:13:00.197Z,13.67
2018-07-27T05:15:27.336Z,15.27
2018-07-27T05:17:54.467Z,13.90
2018-07-27T05:20:21.721Z,14.30
2018-07-27T05:22:48.873Z,15.30
2018-07-27T05:25:16.089Z,14.70
2018-07-27T05:27:43.275Z,14.33
2018-07-27T05:30:10.398Z,16.00
2018-07-27T05:32:37.520Z,13.57
2018-07-27T05:35:04.972Z,14.33
2018-07-27T05:37:32.151Z,13.90
2018-07-27T05:39:59.311Z,13.13
2018-07-27T05:42:26.528Z,13.43
2018-07-27T05:44:53.652Z,13.23
2018-07-27T05:47:20.769Z,17.33
2018-07-27T05:49:48.864Z,12.63
2018-07-27T05:52:16.056Z,13.97
2018-07-27T05:54:43.252Z,12.13
2018-07-27T05:57:10.456Z,12.77
2018-07-27T05:59:37.593Z,12.53
2018-07-27T06:02:04.737Z,13.47
2018-07-27T06:04:31.919Z,11.93
2018-07-27T06:06:59.090Z,12.97
2018-07-27T06:09:26.259Z,11.90
2018-07-27T06:11:53.482Z,13.17
2018-07-27T06:14:20.651Z,15.57
2018-07-27T06:16:47.770Z,14.57
2018-07-27T06:19:14.984Z,12.70
2018-07-27T06:21:42.267Z,12.00
2018-07-27T06:24:09.505Z,11.70
2018-07-27T06:26:36.685Z,12.60
2018-07-27T06:29:03.830Z,11.03
2018-07-27T06:31:30.988Z,14.60
2018-07-27T06:33:58.183Z,13.77
2018-07-27T06:36:25.364Z,10.63
2018-07-27T06:38:52.559Z,11.43
2018-07-27T06:41:19.804Z,12.37
2018-07-27T06:43:46.969Z,12.23
2018-07-27T06:46:14.139Z,12.13
2018-07-27T06:48:41.284Z,13.00
2018-07-27T06:51:08.440Z,11.50
2018-07-27T06:53:35.631Z,12.53
2018-07-27T06:56:02.812Z,11.17
2018-07-27T06:58:30.013Z,10.37
2018-07-27T07:00:57.143Z,11.13
2018-07-27T07:03:24.323Z,9.43
2018-07-27T07:05:51.471Z,12.00
2018-07-27T07:08:18.604Z,11.63
2018-07-27T07:10:46.069Z,11.63
2018-07-27T07:13:13.220Z,10.57
2018-07-27T07:15:40.373Z,10.53
2018-07-27T07:18:07.598Z,11.10
2018-07-27T07:20:34.733Z,12.43
2018-07-27T07:23:01.947Z,11.43
2018-07-27T07:25:29.369Z,12.57
2018-07-27T07:27:56.344Z,12.70
2018-07-27T07:30:23.467Z,10.13
2018-07-27T07:32:50.636Z,11.17
2018-07-27T07:35:17.855Z,9.93
2018-07-27T07:37:45.064Z,10.40
2018-07-27T07:40:12.338Z,11.37
2018-07-27T07:42:39.681Z,11.87
2018-07-27T07:45:07.046Z,8.90
2018-07-27T07:47:34.347Z,10.03
2018-07-27T07:50:01.473Z,9.83
2018-07-27T07:52:28.584Z,9.27
2018-07-27T07:54:55.763Z,11.50
2018-07-27T07:57:22.923Z,10.53
2018-07-27T07:59:50.250Z,9.20
2018-07-27T08:02:17.425Z,10.17
2018-07-27T08:04:44.551Z,8.83
2018-07-27T08:07:11.655Z,11.60
2018-07-27T08:09:39.277Z,8.83
2018-07-27T08:12:06.553Z,9.90
2018-07-27T08:14:33.679Z,12.30
2018-07-27T08:17:00.892Z,8.37
2018-07-27T08:19:28.042Z,8.33
2018-07-27T08:21:55.262Z,12.83
2018-07-27T08:24:22.628Z,8.37
2018-07-27T08:26:57.843Z,8.03
2018-07-27T08:29:27.400Z,11.40
2018-07-27T08:31:55.105Z,9.23
2018-07-27T08:34:22.632Z,8.93
2018-07-27T08:36:50.414Z,9.53
2018-07-27T08:39:18.852Z,8.80
2018-07-27T08:41:46.617Z,8.87
2018-07-27T08:44:15.515Z,7.57
2018-07-27T08:46:42.780Z,10.93
2018-07-27T08:49:10.360Z,7.27
2018-07-27T08:51:37.592Z,7.83
2018-07-27T08:54:04.781Z,8.83
2018-07-27T08:56:31.976Z,6.97
2018-07-27T08:58:59.285Z,7.67
2018-07-27T09:01:26.482Z,9.73
2018-07-27T09:03:53.723Z,6.87
2018-07-27T09:06:20.909Z,8.30
2018-07-27T09:08:48.901Z,9.33
2018-07-27T09:11:16.213Z,7.50
2018-07-27T09:13:43.398Z,9.53
2018-07-27T09:16:10.526Z,9.13
2018-07-27T09:18:37.805Z,6.93
2018-07-27T09:21:05.075Z,7.13
2018-07-27T09:23:32.406Z,8.43
2018-07-27T09:25:59.564Z,7.90
2018-07-27T09:28:27.391Z,8.73
2018-07-27T09:30:55.383Z,7.63
2018-07-27T09:33:22.585Z,7.23
2018-07-27T09:35:50.041Z,6.53
2018-07-27T09:38:17.163Z,7.07
2018-07-27T09:40:44.364Z,6.93
2018-07-27T09:43:11.580Z,7.17
2018-07-27T09:45:38.687Z,9.53
2018-07-27T09:48:05.996Z,8.30
2018-07-27T09:50:33.201Z,7.83
2018-07-27T09:53:00.423Z,7.10
2018-07-27T09:55:27.588Z,6.97
2018-07-27T09:57:54.801Z,8.17
2018-07-27T10:00:28.589Z,7.90
2018-07-27T10:02:55.816Z,5.40
2018-07-27T10:05:22.953Z,6.73
2018-07-27T10:07:50.095Z,7.60
2018-07-27T10:10:17.406Z,4.53
2018-07-27T10:12:44.770Z,6.80
2018-07-27T10:15:11.874Z,6.57
2018-07-27T10:17:39.033Z,6.93
2018-07-27T10:20:06.213Z,4.50
2018-07-27T10:22:33.383Z,4.60
2018-07-27T10:25:00.717Z,6.13
2018-07-27T10:27:27.868Z,4.73
2018-07-27T10:29:55.024Z,4.70
2018-07-27T10:32:22.289Z,5.30
2018-07-27T10:34:49.464Z,5.10
2018-07-27T10:37:16.772Z,4.72
2018-07-27T10:39:43.952Z,5.77
2018-07-27T10:42:11.095Z,4.90
2018-07-27T10:44:38.288Z,6.63
2018-07-27T10:47:05.664Z,5.03
2018-07-27T10:49:33.159Z,4.40
2018-07-27T10:52:00.331Z,4.30
2018-07-27T10:54:27.901Z,5.92
2018-07-27T10:56:55.027Z,4.58
2018-07-27T10:59:22.156Z,4.83
2018-07-27T11:01:49.448Z,5.10
2018-07-27T11:04:16.572Z,4.70
2018-07-27T11:06:43.690Z,4.47
2018-07-27T11:09:11.015Z,5.40
2018-07-27T11:11:38.176Z,5.35
2018-07-27T11:14:05.531Z,5.08
2018-07-27T11:16:32.769Z,4.53
2018-07-27T11:18:59.907Z,6.92
2018-07-27T11:21:27.075Z,4.47
2018-07-27T11:23:54.655Z,6.00
2018-07-27T11:26:21.924Z,5.15
2018-07-27T11:28:49.036Z,4.47
2018-07-27T11:31:16.229Z,4.00
2018-07-27T11:33:43.372Z,3.92
2018-07-27T11:36:10.533Z,5.03
2018-07-27T11:38:37.828Z,6.62
2018-07-27T11:41:05.033Z,3.98
2018-07-27T11:43:32.177Z,5.20
2018-07-27T11:45:59.409Z,5.37
2018-07-27T11:48:26.515Z,3.52
2018-07-27T11:50:53.792Z,3.92
2018-07-27T11:53:21.319Z,4.42
2018-07-27T11:55:48.443Z,4.12
2018-07-27T11:58:15.568Z,4.80
2018-07-27T12:00:42.806Z,3.65
2018-07-27T12:03:10.156Z,4.00
2018-07-27T12:05:37.340Z,3.67
2018-07-27T12:08:04.529Z,5.80
2018-07-27T12:10:31.671Z,4.78
2018-07-27T12:12:58.868Z,3.77
2018-07-27T12:15:26.188Z,3.47
2018-07-27T12:17:53.344Z,3.83
2018-07-27T12:20:20.487Z,3.52
2018-07-27T12:22:47.747Z,4.20
2018-07-27T12:25:14.868Z,3.60
2018-07-27T12:27:42.202Z,3.87
2018-07-27T12:30:09.751Z,3.83
2018-07-27T12:32:36.911Z,4.05
2018-07-27T12:35:04.036Z,4.05
2018-07-27T12:37:31.232Z,4.90
2018-07-27T12:39:58.586Z,4.30
2018-07-27T12:42:25.708Z,4.10
2018-07-27T12:44:52.912Z,4.22
2018-07-27T12:47:20.057Z,4.72
2018-07-27T12:49:47.223Z,4.12
2018-07-27T12:52:14.540Z,3.70
2018-07-27T12:54:41.637Z,3.52
2018-07-27T12:57:08.783Z,3.15
2018-07-27T12:59:36.170Z,4.15
2018-07-27T13:02:03.373Z,3.42
2018-07-27T13:04:30.662Z,5.30
2018-07-27T13:06:57.836Z,3.80
2018-07-27T13:09:24.996Z,3.70
2018-07-27T13:11:52.188Z,4.37
2018-07-27T13:14:19.410Z,5.50
2018-07-27T13:16:46.714Z,5.00
2018-07-27T13:19:14.745Z,4.07
2018-07-27T13:21:41.959Z,4.97
2018-07-27T13:24:09.086Z,4.20
2018-07-27T13:26:36.257Z,3.87
2018-07-27T13:29:03.583Z,3.77
2018-07-27T13:31:45.215Z,4.07
2018-07-27T13:37:15.268Z,3.60
2018-07-27T13:39:44.191Z,3.75
2018-07-27T13:42:12.027Z,7.08
2018-07-27T13:44:39.419Z,3.80
2018-07-27T13:47:07.283Z,4.58
2018-07-27T13:49:34.485Z,5.67
2018-07-27T13:52:02.716Z,4.30
2018-07-27T13:54:31.048Z,4.95
2018-07-27T13:56:58.631Z,4.50
2018-07-27T13:59:25.779Z,4.85
2018-07-27T14:01:52.957Z,3.70
2018-07-27T14:04:20.288Z,4.35
2018-07-27T14:06:48.991Z,5.20
2018-07-27T14:09:16.232Z,3.92
2018-07-27T14:11:43.411Z,4.30
2018-07-27T14:14:10.891Z,4.85
2018-07-27T14:16:38.561Z,5.25
2018-07-27T14:19:05.734Z,4.55
2018-07-27T14:21:32.896Z,4.42
2018-07-27T14:24:00.189Z,6.20
2018-07-27T14:26:27.361Z,4.33
2018-07-27T14:28:55.511Z,5.55
2018-07-27T14:31:22.841Z,6.00
2018-07-27T14:33:50.613Z,5.33
2018-07-27T14:36:17.791Z,5.12
2018-07-27T14:38:44.937Z,5.08
2018-07-27T14:41:12.247Z,4.95
2018-07-27T14:43:39.431Z,4.40
2018-07-27T14:46:07.038Z,4.35
2018-07-27T14:48:34.285Z,4.72
2018-07-27T14:51:01.785Z,5.03
2018-07-27T14:53:29.063Z,4.10
2018-07-27T14:55:56.252Z,6.37
2018-07-27T14:58:23.403Z,3.92
2018-07-27T15:00:50.588Z,4.00
2018-07-27T15:03:17.878Z,6.25
2018-07-27T15:05:45.205Z,5.10
2018-07-27T15:08:12.457Z,4.58
2018-07-27T15:10:39.643Z,4.42
2018-07-27T15:13:06.797Z,6.03
2018-07-27T15:15:33.945Z,3.92
2018-07-27T15:18:01.282Z,4.40
2018-07-27T15:20:28.407Z,4.87
2018-07-27T15:22:55.810Z,5.87
2018-07-27T15:25:23.089Z,4.00
2018-07-27T15:27:50.207Z,10.30
2018-07-27T15:30:18.204Z,6.03
2018-07-27T15:32:45.470Z,5.75
2018-07-27T15:35:12.623Z,4.90
2018-07-27T15:37:39.807Z,4.45
2018-07-27T15:40:07.075Z,4.85
2018-07-27T15:42:34.380Z,4.67
2018-07-27T15:45:01.545Z,3.83
2018-07-27T15:47:29.071Z,4.05
2018-07-27T15:49:56.174Z,5.67
2018-07-27T15:52:23.313Z,3.98
2018-07-27T15:54:50.758Z,5.35
2018-07-27T15:57:17.929Z,3.40
2018-07-27T15:59:45.136Z,4.17
2018-07-27T16:02:12.436Z,3.85
2018-07-27T16:04:39.680Z,5.12
2018-07-27T16:07:06.943Z,3.80
2018-07-27T16:09:34.122Z,3.62
2018-07-27T16:12:01.327Z,3.60
2018-07-27T16:14:28.497Z,5.67
2018-07-27T16:16:56.150Z,3.75
2018-07-27T16:19:24.460Z,4.33
2018-07-27T16:21:51.658Z,4.60
2018-07-27T16:24:18.821Z,4.85
2018-07-27T16:26:45.952Z,5.22
2018-07-27T16:29:13.070Z,5.70
2018-07-27T16:31:40.455Z,4.67
2018-07-27T16:34:07.592Z,5.20
2018-07-27T16:36:34.820Z,5.30
2018-07-27T16:39:02.067Z,6.67
2018-07-27T16:41:29.267Z,4.85
2018-07-27T16:43:56.557Z,5.40
2018-07-27T16:46:23.761Z,7.67
2018-07-27T16:48:50.913Z,8.33
2018-07-27T16:51:18.109Z,7.77
2018-07-27T16:53:45.303Z,7.13
2018-07-27T16:56:12.589Z,5.50
2018-07-27T16:58:39.771Z,6.07
2018-07-27T17:01:06.952Z,5.50
2018-07-27T17:03:34.084Z,6.17
2018-07-27T17:06:01.237Z,6.10
2018-07-27T17:08:28.589Z,5.93
2018-07-27T17:10:55.702Z,5.00
2018-07-27T17:13:22.846Z,6.17
2018-07-27T17:15:50.064Z,5.83
2018-07-27T17:18:17.254Z,5.87
2018-07-27T17:20:44.651Z,6.87
2018-07-27T17:23:12.427Z,6.00
2018-07-27T17:25:39.670Z,6.97
2018-07-27T17:28:06.824Z,6.00
2018-07-27T17:30:34.037Z,5.60
2018-07-27T17:33:01.324Z,5.57
2018-07-27T17:35:28.483Z,5.57
2018-07-27T17:37:55.657Z,5.93
2018-07-27T17:40:22.898Z,6.77
2018-07-27T17:42:50.048Z,7.17
2018-07-27T17:45:17.739Z,6.77
2018-07-27T17:47:44.901Z,7.10
2018-07-27T17:50:12.109Z,6.97
2018-07-27T17:52:39.316Z,6.73
2018-07-27T17:55:07.410Z,6.33
2018-07-27T17:57:34.949Z,6.77
2018-07-27T18:00:02.341Z,7.03
2018-07-27T18:02:29.556Z,9.13
2018-07-27T18:04:56.694Z,6.93
2018-07-27T18:07:24.083Z,7.47
2018-07-27T18:09:51.224Z,7.03
2018-07-27T18:12:18.319Z,6.87
2018-07-27T18:14:46.143Z,7.63
2018-07-27T18:17:13.716Z,7.10
2018-07-27T18:19:41.180Z,9.00
2018-07-27T18:22:08.711Z,7.13
2018-07-27T18:24:35.943Z,8.10
2018-07-27T18:27:03.178Z,7.47
2018-07-27T18:29:30.494Z,7.50
2018-07-27T18:31:57.749Z,8.03
2018-07-27T18:34:24.967Z,7.57
2018-07-27T18:36:52.259Z,9.23
2018-07-27T18:39:19.399Z,7.33
2018-07-27T18:41:46.597Z,8.33
2018-07-27T18:44:15.270Z,8.10
2018-07-27T18:46:42.449Z,8.03
2018-07-27T18:49:10.029Z,7.53
2018-07-27T18:51:37.208Z,9.10
2018-07-27T18:54:04.853Z,8.40
2018-07-27T18:56:32.140Z,8.50
2018-07-27T18:58:59.362Z,8.63
2018-07-27T19:01:26.592Z,7.87
2018-07-27T19:03:53.788Z,8.00
2018-07-27T19:06:22.108Z,8.43
2018-07-27T19:08:49.657Z,8.57
2018-07-27T19:11:17.005Z,8.37
2018-07-27T19:13:44.831Z,8.67
2018-07-27T19:16:11.991Z,7.93
2018-07-27T19:18:39.600Z,8.00
2018-07-27T19:21:06.907Z,7.77
2018-07-27T19:23:34.136Z,8.33
2018-07-27T19:26:01.471Z,8.80
2018-07-27T19:28:28.644Z,8.70
2018-07-27T19:30:57.105Z,8.83
2018-07-27T19:33:24.426Z,8.27
2018-07-27T19:35:51.755Z,9.23
2018-07-27T19:38:19.029Z,8.60
2018-07-27T19:40:46.289Z,8.83
2018-07-27T19:43:13.514Z,9.53
2018-07-27T19:45:40.651Z,9.47
2018-07-27T19:48:08.335Z,10.70
2018-07-27T19:50:35.651Z,10.00
2018-07-27T19:53:02.771Z,9.87
2018-07-27T19:55:30.966Z,9.17
2018-07-27T19:57:58.164Z,9.67
2018-07-27T20:00:25.322Z,9.63
2018-07-27T20:02:52.511Z,10.10
2018-07-27T20:05:19.755Z,10.13
2018-07-27T20:07:47.252Z,9.90
2018-07-27T20:10:14.547Z,9.73
2018-07-27T20:12:41.760Z,9.20
2018-07-27T20:15:09.104Z,9.23
2018-07-27T20:17:36.312Z,10.00
2018-07-27T20:20:06.077Z,10.00
2018-07-27T20:22:33.467Z,10.57
2018-07-27T20:25:00.738Z,10.17
2018-07-27T20:27:28.231Z,10.13
2018-07-27T20:29:55.460Z,9.93
2018-07-27T20:32:22.691Z,10.37
2018-07-27T20:34:49.866Z,10.27
2018-07-27T20:37:17.080Z,9.67
2018-07-27T20:39:44.321Z,9.60
2018-07-27T20:42:11.485Z,8.73
2018-07-27T20:44:38.738Z,9.43
2018-07-27T20:47:06.660Z,9.83
2018-07-27T20:49:34.338Z,9.00
2018-07-27T20:52:01.684Z,9.37
2018-07-27T20:54:29.688Z,8.60
2018-07-27T20:56:57.368Z,8.63
2018-07-27T20:59:26.713Z,8.67
2018-07-27T21:02:00.975Z,8.53
2018-07-27T21:04:32.250Z,8.30
2018-07-27T21:06:59.966Z,8.50
2018-07-27T21:09:27.445Z,8.77
2018-07-27T21:11:54.725Z,8.73
2018-07-27T21:14:26.672Z,9.13
2018-07-27T21:16:59.116Z,8.83
2018-07-27T21:19:27.898Z,8.97
2018-07-27T21:21:58.488Z,9.10
2018-07-27T21:24:29.054Z,9.17
2018-07-27T21:26:56.279Z,9.20
2018-07-27T21:29:24.259Z,9.20
2018-07-27T21:31:51.729Z,8.53
2018-07-27T21:34:21.369Z,8.83
2018-07-27T21:36:48.694Z,8.83
2018-07-27T21:39:15.951Z,8.83
2018-07-27T21:41:43.047Z,8.77
2018-07-27T21:44:10.127Z,9.23
2018-07-27T21:46:38.695Z,9.60
2018-07-27T21:49:05.788Z,9.33
2018-07-27T21:51:34.014Z,10.23
2018-07-27T21:54:01.144Z,9.47
2018-07-27T21:56:28.303Z,9.40
2018-07-27T21:58:55.500Z,9.87
2018-07-27T22:01:22.862Z,10.13
2018-07-27T22:03:50.171Z,9.60
2018-07-27T22:06:17.895Z,9.90
2018-07-27T22:08:45.133Z,9.90
2018-07-27T22:11:12.228Z,9.47
2018-07-27T22:13:40.932Z,10.07
2018-07-27T22:16:09.110Z,9.77
2018-07-27T22:18:36.397Z,10.10
2018-07-27T22:21:03.522Z,10.07
2018-07-27T22:23:30.683Z,10.03
2018-07-27T22:25:57.795Z,10.50
2018-07-27T22:28:25.390Z,10.17
2018-07-27T22:30:52.674Z,9.77
2018-07-27T22:33:19.879Z,9.97
2018-07-27T22:35:47.178Z,9.73
2018-07-27T22:38:14.329Z,10.47
2018-07-27T22:40:41.849Z,10.13
2018-07-27T22:43:09.391Z,9.97
2018-07-27T22:45:36.785Z,10.03
2018-07-27T22:48:04.097Z,9.57
2018-07-27T22:50:31.212Z,9.93
2018-07-27T22:52:59.344Z,10.93
2018-07-27T22:55:26.516Z,10.47
2018-07-27T22:57:54.513Z,9.87
2018-07-27T23:00:21.753Z,10.50
2018-07-27T23:02:49.014Z,10.90
2018-07-27T23:05:16.248Z,10.27
2018-07-27T23:07:43.937Z,10.17
2018-07-27T23:10:11.068Z,11.10
2018-07-27T23:12:38.284Z,10.37
2018-07-27T23:15:08.748Z,11.07
2018-07-27T23:17:35.873Z,10.27
2018-07-27T23:20:04.694Z,11.03
2018-07-27T23:22:32.082Z,10.10
2018-07-27T23:24:59.167Z,10.70
2018-07-27T23:27:26.631Z,11.40
2018-07-27T23:29:53.845Z,11.07
2018-07-27T23:32:21.010Z,10.47
2018-07-27T23:34:49.266Z,10.63
2018-07-27T23:37:16.580Z,10.60
2018-07-27T23:39:44.882Z,11.33
2018-07-27T23:42:12.968Z,10.03
2018-07-27T23:44:40.119Z,10.80
2018-07-27T23:47:07.231Z,10.70
2018-07-27T23:49:35.341Z,10.60
2018-07-27T23:52:02.890Z,10.43
2018-07-27T23:54:29.979Z,10.40
2018-07-27T23:56:57.097Z,10.27
2018-07-27T23:59:24.263Z,10.27
